Roma, Australia
Current Conditions -  °F | °C
As of 8:00 PM on Monday 26 Jan 2015 (Local Time) from YBCV Reporting Station
Scattered Clouds Scattered Clouds  
Wind Chill: 93°   Ceiling: Unl
Heat Index: 93°   Visibility: 6mi
Dew Point: 48°   Wind: 8mph
Humidity: 21%   Direction: 190°S
Pressure: 29.62"   Gusts: NA
Location:  26.57°S, 148.79°E
Report Text: YBCV 261000Z AUTO 19007KT 9999 // SCT120 34/09 Q1003
Loading
Personal Weather Stations






























Interactive Weather Map New forecast layout! Learn more

10-Day Weather Forecast

Advertisements
Track Severe Weather on mobile